Latest Weather Observations for Lihou Reef Lighthouse

IDQ60801

Issued at 10:32 am EST Monday 27 March 2017 (issued every 30 minutes, with the page automatically refreshed every 10 minutes)

About weather observations | Map of weather stations | Latest weather observations for QLD | Other Formats
Station Details ID: 200880 Name: LIHOU REEF LIGHTHOUSE Lat: -17.13 Lon: 152.15 Height: 0.0 m
Data from the previous 72 hours. | See also: Recent months at Lihou Reef Lighthouse
Date/Time
EST
Temp
°C
App
Temp
°C
Dew
Point
°C
Rel
Hum
%
Delta-T
°C
Wind Press
QNH
hPa
Press
MSL
hPa
Rain since
9am
mm
Dir  Spd
km/h
Gust
km/h
Spd
kts
Gust
kts
27/10:30am 27.5 - - - - N 44 56 24 30 1005.4 1005.3 -
27/10:00am 27.5 - - - - N 46 56 25 30 1005.3 1005.2 -
27/09:30am 27.7 - - - - NNW 46 57 25 31 1004.9 1004.8 -
27/09:00am 27.3 - - - - N 46 56 25 30 1005.1 1005.0 -
27/08:30am 27.1 - - - - N 46 59 25 32 1005.0 1004.9 -
27/08:00am 26.3 - - - - NNW 46 57 25 31 1004.7 1004.6 -
27/07:30am 25.2 - - - - NNW 50 61 27 33 1004.1 1004.0 -
27/07:00am 25.0 - - - - NNW 59 82 32 44 1004.1 1004.0 -
27/06:37am 25.8 - - - - NNW 54 80 29 43 1003.5 1003.4 -
27/06:36am 26.0 - - - - NNW 52 67 28 36 1003.6 1003.5 -
27/06:30am 27.1 - - - - N 56 65 30 35 1002.8 1002.7 -
27/06:00am 27.4 - - - - NNW 43 56 23 30 1002.3 1002.2 -
27/05:30am 27.1 - - - - NNW 44 54 24 29 1001.9 1001.8 -
27/05:00am 26.9 - - - - NNW 50 59 27 32 1002.3 1002.2 -
27/04:45am 27.2 - - - - NNW 48 70 26 38 1002.0 1001.9 -
27/04:30am 26.8 - - - - NNW 46 59 25 32 1001.9 1001.8 -
27/04:15am 25.9 - - - - N 48 69 26 37 1001.6 1001.5 -
27/04:00am 27.2 - - - - N 48 61 26 33 1001.5 1001.4 -
27/03:30am 27.5 - - - - N 52 65 28 35 1001.6 1001.5 -
27/03:00am 27.3 - - - - NNW 50 61 27 33 1001.3 1001.2 -
27/02:30am 27.2 - - - - NNW 54 67 29 36 1001.4 1001.3 -
27/02:00am 27.1 - - - - NNW 52 70 28 38 1001.6 1001.5 -
27/01:30am 26.9 - - - - NNW 54 67 29 36 1001.7 1001.6 -
27/01:00am 27.1 - - - - NNW 48 59 26 32 1001.7 1001.6 -
27/12:30am 26.9 - - - - NNW 56 70 30 38 1002.0 1001.9 -
27/12:00am 27.1 - - - - NNW 54 67 29 36 1002.7 1002.6 -
 
Date/Time
EST
Temp
°C
App
Temp
°C
Dew
Point
°C
Rel
Hum
%
Delta-T
°C
Wind Press
QNH
hPa
Press
MSL
hPa
Rain since
9am
mm
Dir  Spd
km/h
Gust
km/h
Spd
kts
Gust
kts
26/11:53pm 27.0 - - - - NNW 54 72 29 39 1002.8 1002.7 -
26/11:30pm 26.5 - - - - NNW 59 70 32 38 1002.8 1002.7 -
26/11:00pm 26.8 - - - - NNW 54 67 29 36 1002.2 1002.1 -
26/10:33pm 25.8 - - - - NNW 59 78 32 42 1003.0 1002.9 -
26/10:30pm 25.7 - - - - NNW 63 78 34 42 1002.9 1002.8 -
26/10:19pm 26.4 - - - - NNW 56 74 30 40 1002.7 1002.6 -
26/10:00pm 25.8 - - - - NNW 57 70 31 38 1002.9 1002.8 -
26/09:47pm 26.3 - - - - NNW 56 78 30 42 1002.5 1002.4 -
26/09:30pm 27.7 - - - - N 54 67 29 36 1002.1 1002.0 -
26/09:00pm 27.7 - - - - N 56 67 30 36 1001.8 1001.7 -
26/08:30pm 27.2 - - - - N 50 61 27 33 1001.6 1001.5 -
26/08:00pm 25.8 - - - - NNW 59 85 32 46 1001.1 1001.0 -
26/07:36pm 24.9 - - - - NNW 63 82 34 44 1001.2 1001.1 -
26/07:30pm 27.5 - - - - NNW 59 70 32 38 1000.7 1000.6 -
26/07:03pm 27.0 - - - - NNW 59 78 32 42 1000.1 1000.0 -
26/07:00pm 26.8 - - - - NNW 61 80 33 43 1000.1 1000.0 -
26/06:47pm 25.4 - - - - NNW 57 78 31 42 1000.2 1000.1 -
26/06:30pm 27.3 - - - - NNW 57 72 31 39 999.5 999.4 -
26/06:03pm 26.7 - - - - NNW 56 76 30 41 999.0 998.9 -
26/06:00pm 26.5 - - - - NNW 54 69 29 37 999.0 998.9 -
26/05:35pm 25.4 - - - - NNW 59 78 32 42 999.4 999.3 -
26/05:30pm 24.9 - - - - NNW 57 70 31 38 999.3 999.2 -
26/05:00pm 24.9 - - - - NNW 67 96 36 52 998.8 998.7 -
26/04:43pm 24.4 - - - - NNW 65 91 35 49 998.8 998.7 -
26/04:30pm 27.0 - - - - NNW 63 78 34 42 997.6 997.5 -
26/04:00pm 26.0 - - - - NNW 61 83 33 45 997.9 997.8 -
26/03:30pm 25.9 - - - - NNW 67 89 36 48 997.5 997.4 -
26/03:17pm 26.4 - - - - NNW 65 83 35 45 997.3 997.2 -
26/03:00pm 26.5 - - - - NNW 63 78 34 42 997.4 997.3 -
26/02:30pm 26.5 - - - - NNW 65 76 35 41 997.4 997.3 -
26/02:07pm 26.4 - - - - NNW 63 82 34 44 997.7 997.6 -
26/02:00pm 26.1 - - - - NNW 65 78 35 42 997.7 997.6 -
26/01:30pm 25.9 - - - - NNW 65 83 35 45 997.8 997.7 -
26/01:00pm 25.7 - - - - NNW 69 87 37 47 998.0 997.9 -
26/12:33pm 26.0 - - - - NNW 70 91 38 49 997.9 997.8 -
26/12:30pm 26.1 - - - - NNW 69 83 37 45 997.9 997.8 -
26/12:01pm 26.1 - - - - NNW 63 83 34 45 998.7 998.6 -
26/12:00pm 26.2 - - - - NNW 65 83 35 45 998.7 998.6 -
26/11:44am 26.5 - - - - N 65 85 35 46 998.2 998.1 -
26/11:30am 26.7 - - - - N 69 82 37 44 998.5 998.4 -
26/11:00am 26.6 - - - - N 65 83 35 45 998.5 998.4 -
26/10:34am 26.5 - - - - NNW 67 87 36 47 998.8 998.7 -
26/10:30am 26.5 - - - - NNW 65 82 35 44 998.8 998.7 -
26/10:00am 26.7 - - - - NNW 72 87 39 47 999.0 998.9 -
26/09:30am 26.6 - - - - NNW 69 91 37 49 998.9 998.8 -
26/09:08am 27.1 - - - - NNW 72 95 39 51 999.1 999.0 -
26/09:00am 27.0 - - - - NNW 69 83 37 45 999.0 998.9 -
26/08:30am 26.8 - - - - NNW 74 95 40 51 998.4 998.3 -
26/08:00am 27.2 - - - - NNW 76 100 41 54 997.4 997.3 -
26/07:30am 27.4 - - - - NNW 76 100 41 54 997.0 996.9 -
26/07:10am 27.3 - - - - NNW 76 102 41 55 996.7 996.6 -
26/07:00am 27.1 - - - - NNW 76 95 41 51 996.5 996.4 -
26/06:32am 27.1 - - - - NNW 78 100 42 54 995.9 995.8 -
26/06:30am 26.8 - - - - NNW 78 93 42 50 995.8 995.7 -
26/06:00am 27.1 - - - - NNW 78 98 42 53 995.4 995.3 -
26/05:30am 26.2 - - - - NNW 76 100 41 54 994.9 994.8 -
26/05:00am 25.3 - - - - NNW 78 100 42 54 994.4 994.3 -
26/04:31am 25.4 - - - - NNW 78 96 42 52 993.8 993.7 -
26/04:30am 25.3 - - - - NNW 80 96 43 52 993.8 993.7 -
26/04:00am 25.1 - - - - NNW 80 100 43 54 993.6 993.5 -
26/03:30am 25.7 - - - - NNW 83 106 45 57 993.3 993.2 -
26/03:17am 25.4 - - - - NNW 78 107 42 58 993.3 993.2 -
26/03:16am 25.6 - - - - NNW 80 115 43 62 1016.0 1015.9 -
26/03:00am 25.4 - - - - NNW 87 113 47 61 993.0 992.9 -
26/02:30am 26.6 - - - - NNW 89 113 48 61 992.9 992.8 -
26/02:00am 27.1 - - - - NNW 80 104 43 56 992.8 992.7 -
26/01:30am 27.0 - - - - NNW 82 106 44 57 993.0 992.9 -
26/01:08am 27.2 - - - - NNW 80 98 43 53 993.1 993.0 -
26/01:00am 26.8 - - - - NNW 78 95 42 51 993.3 993.2 -
26/12:43am 27.1 - - - - NNW 74 93 40 50 993.5 993.4 -
26/12:30am 27.2 - - - - NW 74 93 40 50 993.7 993.6 -
26/12:01am 26.6 - - - - NW 72 95 39 51 993.4 993.3 -
26/12:00am 26.5 - - - - NW 70 87 38 47 993.4 993.3 -
 
Date/Time
EST
Temp
°C
App
Temp
°C
Dew
Point
°C
Rel
Hum
%
Delta-T
°C
Wind Press
QNH
hPa
Press
MSL
hPa
Rain since
9am
mm
Dir  Spd
km/h
Gust
km/h
Spd
kts
Gust
kts
25/11:52pm 26.3 - - - - NW 69 87 37 47 993.5 993.4 -
25/11:30pm 27.0 - - - - NW 61 74 33 40 993.3 993.2 -
25/11:00pm 26.1 - - - - NW 65 85 35 46 992.7 992.6 -
25/10:30pm 26.6 - - - - NNW 80 100 43 54 991.7 991.6 -
25/10:00pm 26.7 - - - - NNW 85 106 46 57 991.8 991.7 -
25/09:30pm 26.5 - - - - NNW 72 95 39 51 993.1 993.0 -
25/09:00pm 26.7 - - - - NNW 67 87 36 47 993.7 993.6 -
25/08:59pm 26.8 - - - - NNW 67 87 36 47 993.7 993.6 -
25/08:30pm 27.0 - - - - NW 61 74 33 40 994.1 994.0 -
25/08:00pm 26.9 - - - - WNW 61 76 33 41 993.6 993.5 -
25/07:38pm 27.1 - - - - NW 61 80 33 43 992.6 992.5 -
25/07:30pm 27.3 - - - - NW 69 85 37 46 992.8 992.7 -
25/07:00pm 27.0 - - - - NW 63 83 34 45 993.0 992.9 -
25/06:59pm 27.2 - - - - NW 61 83 33 45 992.9 992.8 -
25/06:46pm 26.7 - - - - WNW 59 74 32 40 993.0 992.9 -
25/06:30pm 26.7 - - - - W 46 56 25 30 993.0 992.9 -
25/06:24pm 26.6 - - - - W 43 56 23 30 992.8 992.7 -
25/06:00pm 26.5 - - - - W 32 39 17 21 992.1 992.0 -
25/05:30pm 27.4 - - - - NNW 37 46 20 25 991.9 991.8 -
25/05:00pm 27.6 - - - - NW 52 61 28 33 992.7 992.6 -
25/04:30pm 26.9 - - - - WNW 59 67 32 36 992.5 992.4 -
25/04:00pm 27.0 - - - - WNW 48 63 26 34 992.7 992.6 -
25/03:30pm 27.1 - - - - WNW 54 65 29 35 992.5 992.4 -
25/03:00pm 26.4 - - - - W 50 59 27 32 992.0 991.9 -
25/02:30pm 27.0 - - - - W 37 54 20 29 991.4 991.3 -
25/02:06pm 27.2 - - - - W 33 52 18 28 991.1 991.0 -
25/02:00pm 27.4 - - - - W 37 57 20 31 991.0 990.9 -
25/01:55pm 27.2 - - - - W 48 69 26 37 990.9 990.8 -
25/01:30pm 26.9 - - - - W 59 80 32 43 990.0 989.9 -
25/01:25pm 26.8 - - - - W 56 80 30 43 989.8 989.7 -
25/01:24pm 26.8 - - - - W 56 80 30 43 989.7 989.6 -
25/01:15pm 26.9 - - - - W 39 76 21 41 989.3 989.2 -
25/01:07pm 27.3 - - - - WSW 28 48 15 26 989.2 989.1 -
25/01:00pm 27.2 - - - - WSW 26 32 14 17 989.0 988.9 -
25/12:30pm 27.8 - - - - NW 35 43 19 23 988.7 988.6 -
25/12:21pm 27.8 - - - - NW 28 37 15 20 989.2 989.1 -
25/12:00pm 27.4 - - - - NNW 44 56 24 30 990.6 990.5 -
25/11:30am 27.4 - - - - NW 44 56 24 30 991.5 991.4 -
25/11:04am 27.6 - - - - NNW 33 52 18 28 992.4 992.3 -
25/11:00am 27.6 - - - - NNW 35 46 19 25 992.5 992.4 -
25/10:30am 27.1 - - - - NNW 41 48 22 26 993.5 993.4 -
25/10:00am 27.5 - - - - NNW 37 46 20 25 994.3 994.2 -
25/09:30am 27.4 - - - - NNW 39 46 21 25 994.6 994.5 -
25/09:00am 27.0 - - - - NW 39 46 21 25 994.6 994.5 -
25/08:30am 27.0 - - - - WNW 39 50 21 27 994.1 994.0 -
25/08:00am 27.8 - - - - NW 41 50 22 27 993.8 993.7 -
25/07:30am 27.3 - - - - NW 41 48 22 26 993.5 993.4 -
25/07:00am 27.4 - - - - WNW 41 50 22 27 993.1 993.0 -
25/06:57am 27.4 - - - - W 37 50 20 27 993.0 992.9 -
25/06:30am 27.3 - - - - W 32 56 17 30 992.3 992.2 -
25/06:19am 27.4 - - - - W 37 48 20 26 992.2 992.1 -
25/06:00am 27.2 - - - - WSW 20 30 11 16 992.2 992.1 -
25/05:30am 27.6 - - - - WSW 15 19 8 10 992.1 992.0 -
25/05:00am 27.0 - - - - S 19 22 10 12 991.7 991.6 -
25/04:30am 27.2 - - - - SSE 26 33 14 18 991.5 991.4 -
25/04:17am 27.4 - - - - S 35 50 19 27 991.3 991.2 -
25/04:00am 27.2 - - - - SSE 24 30 13 16 991.8 991.7 -
25/03:30am 27.1 - - - - SE 33 43 18 23 992.6 992.5 -
25/03:00am 26.8 - - - - ESE 44 56 24 30 993.2 993.1 -
25/02:47am 27.0 - - - - E 39 48 21 26 993.7 993.6 -
25/02:30am 27.0 - - - - ENE 37 46 20 25 994.7 994.6 -
25/02:00am 26.4 - - - - ENE 33 46 18 25 995.7 995.6 -
25/01:30am 26.8 - - - - ENE 35 46 19 25 996.4 996.3 -
25/01:19am 26.6 - - - - E 33 43 18 23 996.5 996.4 -
25/01:00am 27.4 - - - - E 30 37 16 20 997.5 997.4 -
25/12:30am 27.4 - - - - ENE 30 41 16 22 998.3 998.2 -
25/12:00am 27.2 - - - - NE 28 37 15 20 998.7 998.6 -
 
Date/Time
EST
Temp
°C
App
Temp
°C
Dew
Point
°C
Rel
Hum
%
Delta-T
°C
Wind Press
QNH
hPa
Press
MSL
hPa
Rain since
9am
mm
Dir  Spd
km/h
Gust
km/h
Spd
kts
Gust
kts
24/11:30pm 27.5 - - - - ENE 32 37 17 20 999.4 999.3 -
24/11:00pm 27.6 - - - - NE 33 41 18 22 999.4 999.3 -
24/10:30pm 27.3 - - - - NE 28 35 15 19 999.9 999.8 -
24/10:00pm 26.8 - - - - NNE 33 39 18 21 999.8 999.7 -
24/09:30pm 26.7 - - - - NE 20 26 11 14 999.8 999.7 -
24/09:21pm 27.6 - - - - E 26 35 14 19 999.8 999.7 -
24/09:00pm 27.9 - - - - E 41 48 22 26 999.4 999.3 -
24/08:30pm 26.9 - - - - ESE 43 50 23 27 999.4 999.3 -
24/08:11pm 27.8 - - - - ESE 39 65 21 35 999.6 999.5 -
24/08:08pm 27.5 - - - - SE 39 50 21 27 999.7 999.6 -
24/08:00pm 27.4 - - - - SE 41 50 22 27 999.7 999.6 -
24/07:30pm 27.5 - - - - ESE 44 56 24 30 999.8 999.7 -
24/07:00pm 27.3 - - - - E 41 48 22 26 1000.0 999.9 -
24/06:53pm 26.9 - - - - ENE 26 48 14 26 1000.3 1000.2 -
24/06:30pm 26.9 - - - - ENE 22 33 12 18 1000.3 1000.2 -
24/06:00pm 26.4 - - - - NE 30 35 16 19 999.9 999.8 -
24/05:34pm 25.4 - - - - N 28 48 15 26 999.7 999.6 -
24/05:30pm 25.1 - - - - NNE 32 48 17 26 999.7 999.6 -
24/05:24pm 26.3 - - - - E 26 46 14 25 998.9 998.8 -
24/05:00pm 26.3 - - - - NNE 19 24 10 13 999.2 999.1 -
24/04:30pm 26.7 - - - - NNE 26 39 14 21 998.3 998.2 -
24/04:14pm 26.5 - - - - NNE 35 63 19 34 996.9 996.8 -
24/04:11pm 26.1 - - - - NNE 28 54 15 29 996.7 996.6 -
24/04:00pm 26.1 - - - - SSE 39 65 21 35 997.0 996.9 -
24/03:59pm 26.2 - - - - SSE 44 85 24 46 996.8 996.7 -
24/03:57pm 25.9 - - - - S 46 85 25 46 997.2 997.1 -
24/03:53pm 26.4 - - - - SSW 46 85 25 46 997.4 997.3 -
24/03:50pm 25.7 - - - - SSW 48 85 26 46 997.0 996.9 -
24/03:46pm 25.1 - - - - S 52 69 28 37 998.3 998.2 -
24/03:45pm 25.1 - - - - S 54 69 29 37 998.4 998.3 -
24/03:30pm 26.2 - - - - SSE 46 59 25 32 998.8 998.7 -
24/03:00pm 26.2 - - - - SE 43 52 23 28 999.9 999.8 -
24/02:30pm 27.1 - - - - SE 35 41 19 22 1000.7 1000.6 -
24/02:00pm 27.9 - - - - ESE 33 41 18 22 1001.3 1001.2 -
24/01:30pm 27.3 - - - - ESE 26 32 14 17 1002.2 1002.1 -
24/01:00pm 27.4 - - - - SE 28 32 15 17 1002.5 1002.4 -
24/12:30pm 27.3 - - - - ESE 26 33 14 18 1003.4 1003.3 -
24/12:00pm 26.7 - - - - ESE 22 30 12 16 1004.1 1004.0 -
24/11:30am 27.2 - - - - SE 28 30 15 16 1004.6 1004.5 -
24/11:00am 27.5 - - - - - - - - - 1005.4 1005.3 -

Other Formats:

Comma delimited format used in spreadsheet applications
http://www.bom.gov.au/fwo/IDQ60801/IDQ60801.94293.axf

JavaScript Object Notation format (JSON) in row-major order
http://www.bom.gov.au/fwo/IDQ60801/IDQ60801.94293.json